createdAt,value
2023-03-23T00:00:59.814Z,13.59
2023-03-23T00:01:59.789Z,13.63
2023-03-23T00:02:59.770Z,13.56
2023-03-23T00:03:59.783Z,13.57
2023-03-23T00:04:59.790Z,13.56
2023-03-23T00:05:59.764Z,13.56
2023-03-23T00:06:59.764Z,13.52
2023-03-23T00:07:59.771Z,13.49
2023-03-23T00:08:59.779Z,13.47
2023-03-23T00:09:59.769Z,13.50
2023-03-23T00:10:59.767Z,13.50
2023-03-23T00:11:59.757Z,13.50
2023-03-23T00:12:59.740Z,13.47
2023-03-23T00:13:59.806Z,13.53
2023-03-23T00:14:59.734Z,13.44
2023-03-23T00:15:59.813Z,13.50
2023-03-23T00:16:59.730Z,13.53
2023-03-23T00:17:59.725Z,13.52
2023-03-23T00:18:59.740Z,13.50
2023-03-23T00:19:59.708Z,13.46
2023-03-23T00:20:59.724Z,13.41
2023-03-23T00:21:59.707Z,13.42
2023-03-23T00:22:59.701Z,13.44
2023-03-23T00:23:59.702Z,13.50
2023-03-23T00:24:59.767Z,13.38
2023-03-23T00:25:59.694Z,13.42
2023-03-23T00:26:59.696Z,13.42
2023-03-23T00:27:59.690Z,13.53
2023-03-23T00:28:59.706Z,13.42
2023-03-23T00:29:59.715Z,13.46
2023-03-23T00:30:59.677Z,13.37
2023-03-23T00:31:59.674Z,13.39
2023-03-23T00:32:59.670Z,13.44
2023-03-23T00:33:59.670Z,13.38
2023-03-23T00:34:59.660Z,13.37
2023-03-23T00:35:59.673Z,13.41
2023-03-23T00:36:59.675Z,13.41
2023-03-23T00:37:59.667Z,13.39
2023-03-23T00:38:59.694Z,13.37
2023-03-23T00:39:59.649Z,13.39
2023-03-23T00:40:59.683Z,13.39
2023-03-23T00:41:59.637Z,13.39
2023-03-23T00:42:59.637Z,13.31
2023-03-23T00:43:59.636Z,13.37
2023-03-23T00:44:59.638Z,13.39
2023-03-23T00:45:59.625Z,13.38
2023-03-23T00:46:59.629Z,13.38
2023-03-23T00:47:59.642Z,13.39
2023-03-23T00:48:59.653Z,13.35
2023-03-23T00:49:59.629Z,13.41
2023-03-23T00:50:59.621Z,13.35
2023-03-23T00:51:59.624Z,13.37
2023-03-23T00:52:59.610Z,13.38
2023-03-23T00:53:59.593Z,13.44
2023-03-23T00:54:59.596Z,13.35
2023-03-23T00:55:59.590Z,13.30
2023-03-23T00:56:59.604Z,13.39
2023-03-23T00:57:59.613Z,13.30
2023-03-23T00:58:59.593Z,13.31
2023-03-23T00:59:59.590Z,13.31
2023-03-23T01:00:59.590Z,13.33
2023-03-23T01:01:59.591Z,13.20
2023-03-23T01:02:59.570Z,13.22
2023-03-23T01:03:59.571Z,13.35
2023-03-23T01:04:59.558Z,13.19
2023-03-23T01:05:59.554Z,13.23
2023-03-23T01:06:59.576Z,13.27
2023-03-23T01:07:59.551Z,13.22
2023-03-23T01:08:59.553Z,13.20
2023-03-23T01:09:59.553Z,13.23
2023-03-23T01:10:59.541Z,13.27
2023-03-23T01:11:59.554Z,13.19
2023-03-23T01:12:59.558Z,13.25
2023-03-23T01:13:59.540Z,13.20
2023-03-23T01:14:59.526Z,13.15
2023-03-23T01:15:59.523Z,13.15
2023-03-23T01:16:59.515Z,13.12
2023-03-23T01:17:59.524Z,13.11
2023-03-23T01:18:59.529Z,13.22
2023-03-23T01:19:59.506Z,13.13
2023-03-23T01:20:59.555Z,13.19
2023-03-23T01:21:59.508Z,13.13
2023-03-23T01:22:59.499Z,13.12
2023-03-23T01:23:59.496Z,13.15
2023-03-23T01:24:59.523Z,13.15
2023-03-23T01:25:59.486Z,13.11
2023-03-23T01:26:59.482Z,13.11
2023-03-23T01:27:59.478Z,13.12
2023-03-23T01:28:59.493Z,13.11
2023-03-23T01:29:59.487Z,13.16
2023-03-23T01:30:59.492Z,13.11
2023-03-23T01:31:59.457Z,13.11
2023-03-23T01:32:59.468Z,13.12
2023-03-23T01:33:59.452Z,13.11
2023-03-23T01:34:59.460Z,13.03
2023-03-23T01:35:59.489Z,13.01
2023-03-23T01:36:59.452Z,13.11
2023-03-23T01:37:59.455Z,13.05
2023-03-23T01:38:59.452Z,13.05
2023-03-23T01:39:59.436Z,13.03
2023-03-23T01:40:59.429Z,13.05
2023-03-23T01:41:59.427Z,12.98
2023-03-23T01:42:59.432Z,13.05
2023-03-23T01:43:59.421Z,13.04
2023-03-23T01:44:59.420Z,13.03
2023-03-23T01:45:59.413Z,12.98
2023-03-23T01:46:59.419Z,13.09
2023-03-23T01:47:59.412Z,13.01
2023-03-23T01:48:59.402Z,13.04
2023-03-23T01:49:59.404Z,13.00
2023-03-23T01:50:59.415Z,13.01
2023-03-23T01:51:59.403Z,13.01
2023-03-23T01:52:59.397Z,13.00
2023-03-23T01:53:59.407Z,13.04
2023-03-23T01:54:59.410Z,13.01
2023-03-23T01:55:59.383Z,12.97
2023-03-23T01:56:59.388Z,12.93
2023-03-23T01:57:59.394Z,13.00
2023-03-23T01:58:59.393Z,12.94
2023-03-23T01:59:59.370Z,12.95
2023-03-23T02:00:59.363Z,13.01
2023-03-23T02:01:59.380Z,13.01
2023-03-23T02:02:59.380Z,12.95
2023-03-23T02:03:59.353Z,13.00
2023-03-23T02:04:59.344Z,12.97
2023-03-23T02:05:59.341Z,13.00
2023-03-23T02:06:59.341Z,12.94
2023-03-23T02:07:59.332Z,13.00
2023-03-23T02:08:59.335Z,12.97
2023-03-23T02:09:59.332Z,12.91
2023-03-23T02:10:59.333Z,12.90
2023-03-23T02:11:59.343Z,12.94
2023-03-23T02:12:59.323Z,12.90
2023-03-23T02:13:59.340Z,12.97
2023-03-23T02:14:59.315Z,12.86
2023-03-23T02:15:59.317Z,12.90
2023-03-23T02:16:59.297Z,12.87
2023-03-23T02:17:59.296Z,12.87
2023-03-23T02:18:59.301Z,12.94
2023-03-23T02:19:59.291Z,12.93
2023-03-23T02:20:59.287Z,12.91
2023-03-23T02:21:59.279Z,13.01
2023-03-23T02:22:59.272Z,12.90
2023-03-23T02:23:59.271Z,12.94
2023-03-23T02:24:59.272Z,12.95
2023-03-23T02:25:59.288Z,12.90
2023-03-23T02:26:59.261Z,12.83
2023-03-23T02:27:59.261Z,12.85
2023-03-23T02:28:59.285Z,12.91
2023-03-23T02:29:59.254Z,12.91
2023-03-23T02:30:59.296Z,12.94
2023-03-23T02:31:59.244Z,12.91
2023-03-23T02:32:59.244Z,12.93
2023-03-23T02:33:59.256Z,12.83
2023-03-23T02:34:59.249Z,12.85
2023-03-23T02:35:59.258Z,12.87
2023-03-23T02:36:59.232Z,12.87
2023-03-23T02:37:59.233Z,12.83
2023-03-23T02:38:59.245Z,12.80
2023-03-23T02:39:59.268Z,12.85
2023-03-23T02:40:59.223Z,12.82
2023-03-23T02:41:59.267Z,12.80
2023-03-23T02:42:59.208Z,12.85
2023-03-23T02:43:59.201Z,12.83
2023-03-23T02:44:59.214Z,12.85
2023-03-23T02:45:59.208Z,12.82
2023-03-23T02:46:59.228Z,12.76
2023-03-23T02:47:59.201Z,12.86
2023-03-23T02:48:59.189Z,12.79
2023-03-23T02:49:59.170Z,12.86
2023-03-23T02:50:59.175Z,12.72
2023-03-23T02:51:59.171Z,12.73
2023-03-23T02:52:59.164Z,12.80
2023-03-23T02:53:59.181Z,12.87
2023-03-23T02:54:59.156Z,12.80
2023-03-23T02:55:59.147Z,12.70
2023-03-23T02:56:59.166Z,12.82
2023-03-23T02:57:59.160Z,12.82
2023-03-23T02:58:59.156Z,12.75
2023-03-23T02:59:59.179Z,12.75
2023-03-23T03:00:59.172Z,12.73
2023-03-23T03:01:59.139Z,12.80
2023-03-23T03:02:59.128Z,12.68
2023-03-23T03:03:59.128Z,12.75
2023-03-23T03:04:59.124Z,12.82
2023-03-23T03:05:59.143Z,12.82
2023-03-23T03:06:59.128Z,12.73
2023-03-23T03:07:59.122Z,12.83
2023-03-23T03:08:59.175Z,12.75
2023-03-23T03:09:59.105Z,12.82
2023-03-23T03:10:59.158Z,12.82
2023-03-23T03:11:59.089Z,12.80
2023-03-23T03:12:59.105Z,12.83
2023-03-23T03:13:59.085Z,12.83
2023-03-23T03:14:59.080Z,12.83
2023-03-23T03:15:59.073Z,12.85
2023-03-23T03:16:59.109Z,12.86
2023-03-23T03:17:59.068Z,12.82
2023-03-23T03:18:59.062Z,12.85
2023-03-23T03:19:59.066Z,12.83
2023-03-23T03:20:59.062Z,12.86
2023-03-23T03:21:59.060Z,12.83
2023-03-23T03:22:59.048Z,12.87
2023-03-23T03:23:59.055Z,12.90
2023-03-23T03:24:59.056Z,12.87
2023-03-23T03:25:59.050Z,12.82
2023-03-23T03:26:59.059Z,12.83
2023-03-23T03:27:59.080Z,12.87
2023-03-23T03:28:59.028Z,12.80
2023-03-23T03:29:59.026Z,12.86
2023-03-23T03:30:59.026Z,12.86
2023-03-23T03:31:59.022Z,12.86
2023-03-23T03:32:59.031Z,12.95
2023-03-23T03:33:59.009Z,12.85
2023-03-23T03:34:59.018Z,12.86
2023-03-23T03:35:59.044Z,12.83
2023-03-23T03:36:59.010Z,12.95
2023-03-23T03:37:58.990Z,12.87
2023-03-23T03:38:59.008Z,12.91
2023-03-23T03:39:59.015Z,12.90
2023-03-23T03:40:58.992Z,12.82
2023-03-23T03:41:58.994Z,12.93
2023-03-23T03:42:58.987Z,12.87
2023-03-23T03:43:58.968Z,12.83
2023-03-23T03:44:58.969Z,12.97
2023-03-23T03:45:58.965Z,12.87
2023-03-23T03:46:58.969Z,12.87
2023-03-23T03:47:58.969Z,12.86
2023-03-23T03:48:58.956Z,12.90
2023-03-23T03:49:58.958Z,12.90
2023-03-23T03:50:58.949Z,12.91
2023-03-23T03:51:58.957Z,12.91
2023-03-23T03:52:58.936Z,12.87
2023-03-23T03:53:58.950Z,12.87
2023-03-23T03:54:58.940Z,12.95
2023-03-23T03:55:58.954Z,12.93
2023-03-23T03:56:58.931Z,12.90
2023-03-23T03:57:58.932Z,12.86
2023-03-23T03:58:58.928Z,12.94
2023-03-23T03:59:58.939Z,12.90
2023-03-23T04:00:58.909Z,12.87
2023-03-23T04:01:58.910Z,12.98
2023-03-23T04:02:58.915Z,12.97
2023-03-23T04:03:58.914Z,12.86
2023-03-23T04:04:58.902Z,12.87
2023-03-23T04:05:58.899Z,12.86
2023-03-23T04:06:58.890Z,12.91
2023-03-23T04:08:09.263Z,12.83
2023-03-23T04:09:07.583Z,12.87
2023-03-23T04:09:58.891Z,12.85
2023-03-23T04:10:58.877Z,12.85
2023-03-23T04:11:58.875Z,12.79
2023-03-23T04:12:58.877Z,12.87
2023-03-23T04:13:58.861Z,12.87
2023-03-23T04:14:58.871Z,12.79
2023-03-23T04:16:10.124Z,12.83
2023-03-23T04:16:58.858Z,12.85
2023-03-23T04:17:58.860Z,12.85
2023-03-23T04:18:58.853Z,12.79
2023-03-23T04:19:58.850Z,12.86
2023-03-23T04:21:06.055Z,12.85
2023-03-23T04:23:02.912Z,12.80
2023-03-23T04:24:02.830Z,12.79
2023-03-23T04:25:55.939Z,12.87
2023-03-23T04:26:55.932Z,12.82
2023-03-23T04:28:59.969Z,12.85
2023-03-23T04:29:59.942Z,12.87
2023-03-23T04:31:52.866Z,12.82
2023-03-23T04:32:52.865Z,12.86
2023-03-23T04:34:56.865Z,12.82
2023-03-23T04:35:56.877Z,12.83
2023-03-23T04:38:00.852Z,12.86
2023-03-23T04:39:00.804Z,12.80
2023-03-23T04:41:04.855Z,12.79
2023-03-23T04:42:04.815Z,12.80
2023-03-23T04:44:08.820Z,12.79
2023-03-23T04:45:08.820Z,12.85
2023-03-23T04:47:01.957Z,12.85
2023-03-23T04:48:01.924Z,12.82
2023-03-23T04:50:05.912Z,12.79
2023-03-23T04:51:05.899Z,12.85
2023-03-23T04:53:09.916Z,12.75
2023-03-23T04:54:09.891Z,12.83
2023-03-23T04:56:13.894Z,12.82
2023-03-23T04:57:13.887Z,12.85
2023-03-23T04:59:17.908Z,12.85
2023-03-23T05:00:17.867Z,12.82
2023-03-23T05:02:14.558Z,12.82
2023-03-23T05:03:10.795Z,12.82
2023-03-23T05:05:14.848Z,12.85
2023-03-23T05:06:14.779Z,12.79
2023-03-23T05:08:18.778Z,12.83
2023-03-23T05:09:18.761Z,12.82
2023-03-23T05:11:22.785Z,12.82
2023-03-23T05:12:22.758Z,12.87
2023-03-23T05:14:26.749Z,12.86
2023-03-23T05:15:26.751Z,12.86
2023-03-23T05:17:30.803Z,12.75
2023-03-23T05:18:30.741Z,12.78
2023-03-23T05:20:35.230Z,12.75
2023-03-23T05:21:35.215Z,12.75
2023-03-23T05:22:35.215Z,12.58
2023-03-23T05:23:35.214Z,12.61
2023-03-23T05:24:35.215Z,12.60
2023-03-23T05:25:35.213Z,12.57
2023-03-23T05:26:35.196Z,12.67
2023-03-23T05:27:35.206Z,12.61
2023-03-23T05:28:35.206Z,12.61
2023-03-23T05:29:35.209Z,12.54
2023-03-23T05:30:35.186Z,12.61
2023-03-23T05:31:35.177Z,12.60
2023-03-23T05:32:35.174Z,12.55
2023-03-23T05:33:35.179Z,12.57
2023-03-23T05:34:35.175Z,12.57
2023-03-23T05:35:35.200Z,12.54
2023-03-23T05:36:35.212Z,12.50
2023-03-23T05:37:35.150Z,12.46
2023-03-23T05:38:35.159Z,12.43
2023-03-23T05:39:35.165Z,12.47
2023-03-23T05:40:35.167Z,12.45
2023-03-23T05:41:35.142Z,12.42
2023-03-23T05:42:35.143Z,12.46
2023-03-23T05:43:35.140Z,12.39
2023-03-23T05:44:35.130Z,12.39
2023-03-23T05:45:35.139Z,12.35
2023-03-23T05:46:35.126Z,12.28
2023-03-23T05:47:35.125Z,12.35
2023-03-23T05:48:35.136Z,12.35
2023-03-23T05:49:35.111Z,12.22
2023-03-23T05:50:35.106Z,12.21
2023-03-23T05:51:35.102Z,12.25
2023-03-23T05:52:35.098Z,12.10
2023-03-23T05:53:35.088Z,12.17
2023-03-23T05:54:35.084Z,12.13
2023-03-23T05:55:35.096Z,11.97
2023-03-23T05:56:35.089Z,12.02
2023-03-23T05:57:35.077Z,12.02
2023-03-23T05:58:35.150Z,12.00
2023-03-23T05:59:35.065Z,12.02
2023-03-23T06:00:35.068Z,11.91
2023-03-23T06:01:35.081Z,11.97
2023-03-23T06:02:35.058Z,11.97
2023-03-23T06:03:35.055Z,11.95
2023-03-23T06:04:35.051Z,11.83
2023-03-23T06:05:35.047Z,11.81
2023-03-23T06:06:35.040Z,11.84
2023-03-23T06:07:35.035Z,11.87
2023-03-23T06:08:35.043Z,11.83
2023-03-23T06:09:35.041Z,11.88
2023-03-23T06:10:35.028Z,11.78
2023-03-23T06:11:35.022Z,11.80
2023-03-23T06:12:35.032Z,11.78
2023-03-23T06:13:35.025Z,11.70
2023-03-23T06:14:35.050Z,11.69
2023-03-23T06:15:35.022Z,11.69
2023-03-23T06:16:35.016Z,11.70
2023-03-23T06:17:35.002Z,11.65
2023-03-23T06:18:35.004Z,11.60
2023-03-23T06:19:34.980Z,11.62
2023-03-23T06:20:35.022Z,11.73
2023-03-23T06:21:34.978Z,11.72
2023-03-23T06:22:34.972Z,11.72
2023-03-23T06:23:34.971Z,11.66
2023-03-23T06:24:34.962Z,11.65
2023-03-23T06:25:34.973Z,11.77
2023-03-23T06:26:34.963Z,11.70
2023-03-23T06:27:34.955Z,11.68
2023-03-23T06:28:34.943Z,11.66
2023-03-23T06:29:34.937Z,11.62
2023-03-23T06:30:34.962Z,11.66
2023-03-23T06:31:34.934Z,11.69
2023-03-23T06:32:34.939Z,11.69
2023-03-23T06:33:34.921Z,11.59
2023-03-23T06:34:34.955Z,11.59
2023-03-23T06:35:34.916Z,11.68
2023-03-23T06:36:34.922Z,11.66
2023-03-23T06:37:34.904Z,11.57
2023-03-23T06:38:34.926Z,11.65
2023-03-23T06:39:34.902Z,11.59
2023-03-23T06:40:34.938Z,11.84
2023-03-23T06:41:34.929Z,12.10
2023-03-23T06:42:34.893Z,12.18
2023-03-23T06:43:36.506Z,12.21
2023-03-23T06:44:34.883Z,12.39
2023-03-23T06:45:34.874Z,12.37
2023-03-23T06:46:34.886Z,12.47
2023-03-23T06:47:34.874Z,12.54
2023-03-23T06:48:34.871Z,12.60
2023-03-23T06:49:34.853Z,12.73
2023-03-23T06:50:34.858Z,12.80
2023-03-23T06:51:34.843Z,12.87
2023-03-23T06:52:34.855Z,13.01
2023-03-23T06:53:34.852Z,13.03
2023-03-23T06:54:34.877Z,13.12
2023-03-23T06:55:34.832Z,13.30
2023-03-23T06:56:34.840Z,13.22
2023-03-23T06:57:34.828Z,13.35
2023-03-23T06:58:34.827Z,13.37
2023-03-23T06:59:34.818Z,13.56
2023-03-23T07:00:34.832Z,13.49
2023-03-23T07:01:34.807Z,13.49
2023-03-23T07:02:34.810Z,13.53
2023-03-23T07:03:34.820Z,13.50
2023-03-23T07:04:34.820Z,13.49
2023-03-23T07:05:34.787Z,13.50
2023-03-23T07:06:34.791Z,13.62
2023-03-23T07:07:34.790Z,13.67
2023-03-23T07:08:34.795Z,13.68
2023-03-23T07:09:42.824Z,13.74
2023-03-23T07:10:34.778Z,13.70
2023-03-23T07:11:34.775Z,13.72
2023-03-23T07:12:34.782Z,13.75
2023-03-23T07:13:34.763Z,13.70
2023-03-23T07:14:34.760Z,13.78
2023-03-23T07:15:34.770Z,13.90
2023-03-23T07:16:34.772Z,13.92
2023-03-23T07:17:34.761Z,13.81
2023-03-23T07:18:34.757Z,13.57
2023-03-23T07:19:34.745Z,13.53
2023-03-23T07:20:34.755Z,13.38
2023-03-23T07:21:34.730Z,13.18
2023-03-23T07:22:34.750Z,13.08
2023-03-23T07:23:34.718Z,12.97
2023-03-23T07:24:34.723Z,12.86
2023-03-23T07:25:34.858Z,12.72
2023-03-23T07:26:34.717Z,12.72
2023-03-23T07:27:34.735Z,12.55
2023-03-23T07:28:34.729Z,12.55
2023-03-23T07:29:34.717Z,12.54
2023-03-23T07:30:34.767Z,12.54
2023-03-23T07:31:34.703Z,12.47
2023-03-23T07:32:34.708Z,12.42
2023-03-23T07:33:34.688Z,12.47
2023-03-23T07:34:34.689Z,12.45
2023-03-23T07:35:34.759Z,12.35
2023-03-23T07:36:34.678Z,12.39
2023-03-23T07:37:34.683Z,12.28
2023-03-23T07:38:34.692Z,12.35
2023-03-23T07:39:36.377Z,12.24
2023-03-23T07:40:34.662Z,12.21
2023-03-23T07:41:34.655Z,12.25
2023-03-23T07:42:34.681Z,12.20
2023-03-23T07:43:34.685Z,12.25
2023-03-23T07:44:34.757Z,12.22
2023-03-23T07:45:34.662Z,12.12
2023-03-23T07:46:34.648Z,12.12
2023-03-23T07:47:34.650Z,12.06
2023-03-23T07:48:34.681Z,12.12
2023-03-23T07:49:34.912Z,12.13
2023-03-23T07:50:34.640Z,12.07
2023-03-23T07:51:34.617Z,12.24
2023-03-23T07:52:34.621Z,12.21
2023-03-23T07:53:34.609Z,12.22
2023-03-23T07:54:34.651Z,12.17
2023-03-23T07:55:34.643Z,12.27
2023-03-23T07:56:34.606Z,12.17
2023-03-23T07:57:34.602Z,12.21
2023-03-23T07:58:34.603Z,12.29
2023-03-23T07:59:34.590Z,12.18
2023-03-23T08:00:34.580Z,12.18
2023-03-23T08:01:34.575Z,12.24
2023-03-23T08:02:35.285Z,12.24
2023-03-23T08:03:34.578Z,12.21
2023-03-23T08:04:34.567Z,12.21
2023-03-23T08:05:34.574Z,12.25
2023-03-23T08:06:34.560Z,12.25
2023-03-23T08:07:34.547Z,12.24
2023-03-23T08:08:34.548Z,12.20
2023-03-23T08:09:34.544Z,12.25
2023-03-23T08:10:34.540Z,12.20
2023-03-23T08:11:34.549Z,12.24
2023-03-23T08:12:34.542Z,12.21
2023-03-23T08:13:34.558Z,12.20
2023-03-23T08:14:34.532Z,12.25
2023-03-23T08:15:34.698Z,12.25
2023-03-23T08:16:34.524Z,12.37
2023-03-23T08:17:34.505Z,12.21
2023-03-23T08:18:34.519Z,12.27
2023-03-23T08:19:34.520Z,12.24
2023-03-23T08:20:34.504Z,12.27
2023-03-23T08:21:34.491Z,12.27
2023-03-23T08:22:39.352Z,12.29
2023-03-23T08:23:34.552Z,12.37
2023-03-23T08:24:34.552Z,12.29
2023-03-23T08:25:34.481Z,12.29
2023-03-23T08:26:34.486Z,12.24
2023-03-23T08:27:34.476Z,12.37
2023-03-23T08:28:34.463Z,12.21
2023-03-23T08:29:34.460Z,12.21
2023-03-23T08:30:34.454Z,12.22
2023-03-23T08:31:34.453Z,12.18
2023-03-23T08:32:34.450Z,12.21
2023-03-23T08:33:34.445Z,12.22
2023-03-23T08:34:34.457Z,12.35
2023-03-23T08:35:34.552Z,12.25
2023-03-23T08:36:34.443Z,12.24
2023-03-23T08:37:34.429Z,12.24
2023-03-23T08:38:34.428Z,12.18
2023-03-23T08:39:34.534Z,12.24
2023-03-23T08:40:34.427Z,12.21
2023-03-23T08:41:34.440Z,12.25
2023-03-23T08:42:34.432Z,12.24
2023-03-23T08:43:34.412Z,12.24
2023-03-23T08:44:34.436Z,12.28
2023-03-23T08:45:34.426Z,12.24
2023-03-23T08:46:34.398Z,12.24
2023-03-23T08:47:34.388Z,12.25
2023-03-23T08:48:34.394Z,12.24
2023-03-23T08:49:34.378Z,12.28
2023-03-23T08:50:34.406Z,12.32
2023-03-23T08:51:34.389Z,12.32
2023-03-23T08:52:34.382Z,12.29
2023-03-23T08:53:34.365Z,12.32
2023-03-23T08:54:34.375Z,12.32
2023-03-23T08:55:34.371Z,12.29
2023-03-23T08:56:34.355Z,12.35
2023-03-23T08:57:34.358Z,12.27
2023-03-23T08:58:34.352Z,12.37
2023-03-23T08:59:34.349Z,12.35
2023-03-23T09:00:34.451Z,12.49
2023-03-23T09:01:34.364Z,12.37
2023-03-23T09:02:34.352Z,12.39
2023-03-23T09:03:34.335Z,12.46
2023-03-23T09:04:34.339Z,12.43
2023-03-23T09:05:34.319Z,12.47
2023-03-23T09:06:34.321Z,12.45
2023-03-23T09:07:34.364Z,12.58
2023-03-23T09:08:34.333Z,12.58
2023-03-23T09:09:34.321Z,12.67
2023-03-23T09:10:34.321Z,12.64
2023-03-23T09:11:34.310Z,12.61
2023-03-23T09:12:34.312Z,12.75
2023-03-23T09:13:34.314Z,12.54
2023-03-23T09:14:34.307Z,12.62
2023-03-23T09:15:38.824Z,12.60
2023-03-23T09:16:34.289Z,12.60
2023-03-23T09:17:34.293Z,12.57
2023-03-23T09:18:34.337Z,12.67
2023-03-23T09:19:34.269Z,12.65
2023-03-23T09:20:34.269Z,12.72
2023-03-23T09:21:34.287Z,12.75
2023-03-23T09:22:34.291Z,12.72
2023-03-23T09:23:34.547Z,12.75
2023-03-23T09:24:34.268Z,12.76
2023-03-23T09:25:34.295Z,12.75
2023-03-23T09:26:34.249Z,12.73
2023-03-23T09:27:34.248Z,12.86
2023-03-23T09:28:34.242Z,12.83
2023-03-23T09:29:34.245Z,12.76
2023-03-23T09:30:39.398Z,12.80
2023-03-23T09:31:34.224Z,12.85
2023-03-23T09:32:34.254Z,12.85
2023-03-23T09:33:34.258Z,12.90
2023-03-23T09:34:34.220Z,12.94
2023-03-23T09:35:34.238Z,12.93
2023-03-23T09:36:34.284Z,12.83
2023-03-23T09:37:34.210Z,12.91
2023-03-23T09:38:34.214Z,13.01
2023-03-23T09:39:34.213Z,13.01
2023-03-23T09:40:34.203Z,13.04
2023-03-23T09:41:34.205Z,13.08
2023-03-23T09:42:34.221Z,13.22
2023-03-23T09:43:34.199Z,13.22
2023-03-23T09:44:34.207Z,13.33
2023-03-23T09:45:34.187Z,13.38
2023-03-23T09:46:34.185Z,13.39
2023-03-23T09:47:34.188Z,13.46
2023-03-23T09:48:34.200Z,13.39
2023-03-23T09:49:34.173Z,13.47
2023-03-23T09:50:34.177Z,13.52
2023-03-23T09:51:34.198Z,13.44
2023-03-23T09:52:34.185Z,13.44
2023-03-23T09:53:34.200Z,13.50
2023-03-23T09:54:34.242Z,13.50
2023-03-23T09:55:34.174Z,13.50
2023-03-23T09:56:34.157Z,13.46
2023-03-23T09:57:34.164Z,13.47
2023-03-23T09:58:34.157Z,13.57
2023-03-23T09:59:34.149Z,13.46
2023-03-23T10:00:34.254Z,13.50
2023-03-23T10:01:34.152Z,13.53
2023-03-23T10:02:34.146Z,13.50
2023-03-23T10:03:34.173Z,13.59
2023-03-23T10:04:34.139Z,13.53
2023-03-23T10:05:34.142Z,13.50
2023-03-23T10:06:35.075Z,13.57
2023-03-23T10:07:34.178Z,13.62
2023-03-23T10:08:34.131Z,13.60
2023-03-23T10:09:34.165Z,13.62
2023-03-23T10:10:34.145Z,13.65
2023-03-23T10:11:34.161Z,13.60
2023-03-23T10:12:34.109Z,13.67
2023-03-23T10:13:34.199Z,13.65
2023-03-23T10:14:34.208Z,13.67
2023-03-23T10:15:34.220Z,13.71
2023-03-23T10:16:34.183Z,13.68
2023-03-23T10:17:34.351Z,13.68
2023-03-23T10:18:34.096Z,13.71
2023-03-23T10:19:34.129Z,13.68
2023-03-23T10:20:34.110Z,13.68
2023-03-23T10:21:41.802Z,13.77
2023-03-23T10:23:38.121Z,13.71
2023-03-23T10:24:38.074Z,13.78
2023-03-23T10:26:42.090Z,13.79
2023-03-23T10:27:42.040Z,13.85
2023-03-23T10:29:46.980Z,13.77
2023-03-23T10:30:46.109Z,13.83
2023-03-23T10:31:46.034Z,13.86
2023-03-23T10:32:46.038Z,13.89
2023-03-23T10:33:46.012Z,13.93
2023-03-23T10:34:46.044Z,13.90
2023-03-23T10:35:46.024Z,13.87
2023-03-23T10:36:46.006Z,13.89
2023-03-23T10:37:46.014Z,14.00
2023-03-23T10:38:46.069Z,13.95
2023-03-23T10:39:46.001Z,13.93
2023-03-23T10:40:46.002Z,14.04
2023-03-23T10:41:46.035Z,14.04
2023-03-23T10:42:46.014Z,14.07
2023-03-23T10:43:45.990Z,14.00
2023-03-23T10:44:46.031Z,14.05
2023-03-23T10:45:54.991Z,14.08
2023-03-23T10:46:48.223Z,14.07
2023-03-23T10:47:45.991Z,14.10
2023-03-23T10:48:46.007Z,14.11
2023-03-23T10:49:46.056Z,14.14
2023-03-23T10:50:46.000Z,14.12
2023-03-23T10:51:45.993Z,14.08
2023-03-23T10:52:45.961Z,14.12
2023-03-23T10:53:46.032Z,14.12
2023-03-23T10:54:45.973Z,14.08
2023-03-23T10:55:46.034Z,14.11
2023-03-23T10:56:58.737Z,14.11
2023-03-23T10:57:45.996Z,14.12
2023-03-23T10:58:45.967Z,14.15
2023-03-23T10:59:45.955Z,14.11
2023-03-23T11:00:45.981Z,14.11
2023-03-23T11:01:45.980Z,14.11
2023-03-23T11:02:45.996Z,14.12
2023-03-23T11:03:45.944Z,14.05
2023-03-23T11:04:45.964Z,14.11
2023-03-23T11:05:45.964Z,14.10
2023-03-23T11:06:45.944Z,14.15
2023-03-23T11:07:45.940Z,14.17
2023-03-23T11:08:45.954Z,14.18
2023-03-23T11:09:45.923Z,14.23
2023-03-23T11:10:45.940Z,14.17
2023-03-23T11:11:45.993Z,14.22
2023-03-23T11:12:45.962Z,14.22
2023-03-23T11:13:47.454Z,14.22
2023-03-23T11:14:45.928Z,14.22
2023-03-23T11:15:45.916Z,14.18
2023-03-23T11:16:45.915Z,14.20
2023-03-23T11:17:45.932Z,14.20
2023-03-23T11:18:45.954Z,14.25
2023-03-23T11:19:46.157Z,14.28
2023-03-23T11:20:45.942Z,14.23
2023-03-23T11:21:45.917Z,14.22
2023-03-23T11:22:45.946Z,14.23
2023-03-23T11:23:45.958Z,14.23
2023-03-23T11:24:45.950Z,14.29
2023-03-23T11:25:45.891Z,14.20
2023-03-23T11:26:53.489Z,14.33
2023-03-23T11:27:46.018Z,14.29
2023-03-23T11:28:45.896Z,14.32
2023-03-23T11:29:51.962Z,14.32
2023-03-23T11:30:45.941Z,14.32
2023-03-23T11:31:45.900Z,14.36
2023-03-23T11:32:45.873Z,14.33
2023-03-23T11:33:45.931Z,14.35
2023-03-23T11:34:45.913Z,14.36
2023-03-23T11:35:45.916Z,14.41
2023-03-23T11:36:45.874Z,14.40
2023-03-23T11:37:45.877Z,14.43
2023-03-23T11:38:45.891Z,14.37
2023-03-23T11:39:45.870Z,14.37
2023-03-23T11:40:45.853Z,14.41
2023-03-23T11:41:45.881Z,14.48
2023-03-23T11:42:45.880Z,14.47
2023-03-23T11:43:45.848Z,14.54
2023-03-23T11:44:45.858Z,14.50
2023-03-23T11:45:45.848Z,14.53
2023-03-23T11:46:45.859Z,14.48
2023-03-23T11:47:45.846Z,14.53
2023-03-23T11:48:45.834Z,14.62
2023-03-23T11:49:45.890Z,14.53
2023-03-23T11:50:45.817Z,14.51
2023-03-23T11:51:45.823Z,14.62
2023-03-23T11:52:45.817Z,14.60
2023-03-23T11:53:45.841Z,14.59
2023-03-23T11:54:46.014Z,14.65
2023-03-23T11:55:45.873Z,14.65
2023-03-23T11:56:45.810Z,14.69
2023-03-23T11:57:45.806Z,14.65
2023-03-23T11:58:45.806Z,14.68
2023-03-23T11:59:45.805Z,14.70
2023-03-23T12:00:45.814Z,14.72
2023-03-23T12:01:45.805Z,14.72
2023-03-23T12:02:45.804Z,14.66
2023-03-23T12:03:45.810Z,14.79
2023-03-23T12:04:45.802Z,14.81
2023-03-23T12:05:45.794Z,14.81
2023-03-23T12:06:45.796Z,14.81
2023-03-23T12:07:45.813Z,14.79
2023-03-23T12:08:45.782Z,14.79
2023-03-23T12:09:45.781Z,14.86
2023-03-23T12:10:46.169Z,14.78
2023-03-23T12:11:45.780Z,14.81
2023-03-23T12:12:45.779Z,14.88
2023-03-23T12:13:49.827Z,14.84
2023-03-23T12:14:45.811Z,14.86
2023-03-23T12:15:45.763Z,14.94
2023-03-23T12:16:45.770Z,14.88
2023-03-23T12:17:45.774Z,14.91
2023-03-23T12:18:45.777Z,14.89
2023-03-23T12:19:45.758Z,14.91
2023-03-23T12:21:45.754Z,14.97
2023-03-23T12:22:45.757Z,14.97
2023-03-23T12:23:45.749Z,15.00
2023-03-23T12:24:45.752Z,14.96
2023-03-23T12:25:45.880Z,15.00
2023-03-23T12:26:45.739Z,15.00
2023-03-23T12:27:45.750Z,15.00
2023-03-23T12:28:45.736Z,14.99
2023-03-23T12:29:45.788Z,15.02
2023-03-23T12:30:45.735Z,14.92
2023-03-23T12:32:45.742Z,15.06
2023-03-23T12:33:45.751Z,15.04
2023-03-23T12:34:45.731Z,15.04
2023-03-23T12:35:45.880Z,15.10
2023-03-23T12:36:45.733Z,15.15
2023-03-23T12:37:45.729Z,15.07
2023-03-23T12:38:45.734Z,15.11
2023-03-23T12:39:45.746Z,15.11
2023-03-23T12:40:46.662Z,15.15
2023-03-23T12:41:45.716Z,15.14
2023-03-23T12:42:45.717Z,15.14
2023-03-23T12:43:45.717Z,15.19
2023-03-23T12:44:45.714Z,15.19
2023-03-23T12:45:45.768Z,15.24
2023-03-23T12:46:45.711Z,15.21
2023-03-23T12:47:45.706Z,15.18
2023-03-23T12:48:45.708Z,15.11
2023-03-23T12:49:45.705Z,15.11
2023-03-23T12:50:45.722Z,15.19
2023-03-23T12:51:45.701Z,15.07
2023-03-23T12:52:45.698Z,15.14
2023-03-23T12:53:45.736Z,15.18
2023-03-23T12:54:45.728Z,15.29
2023-03-23T12:55:45.683Z,15.22
2023-03-23T12:56:45.719Z,15.25
2023-03-23T12:57:45.692Z,15.29
2023-03-23T12:58:45.749Z,15.24
2023-03-23T12:59:45.722Z,15.27
2023-03-23T13:00:45.694Z,15.24
2023-03-23T13:01:45.672Z,15.28
2023-03-23T13:02:45.683Z,15.28
2023-03-23T13:03:45.676Z,15.27
2023-03-23T13:04:45.667Z,15.29
2023-03-23T13:05:45.678Z,15.36
2023-03-23T13:06:45.676Z,15.37
2023-03-23T13:07:45.671Z,15.35
2023-03-23T13:08:45.684Z,15.40
2023-03-23T13:09:45.662Z,15.44
2023-03-23T13:10:45.672Z,15.43
2023-03-23T13:11:45.690Z,15.55
2023-03-23T13:12:45.664Z,15.58
2023-03-23T13:13:53.046Z,15.59
2023-03-23T13:14:45.672Z,15.61
2023-03-23T13:15:45.847Z,15.64
2023-03-23T13:16:45.651Z,15.62
2023-03-23T13:17:45.650Z,15.65
2023-03-23T13:18:45.656Z,15.70